Time;durP1;ratioP1;P1;durP2;ratioP2;P2;SDS_P1;SDS_P2;PMS_P1;PMS_P2;Temp;Humidity;BMP_temperature;BMP_pressure;BME280_temperature;BME280_humidity;BME280_pressure;Samples;Min_cycle;Max_cycle;Signal;HPM_P1;HPM_P2
2023/09/03 00:01:11;;;;;;;;;;;;;;;23.21;59.40;101896.25;4211878;28;20022;-59
2023/09/03 00:03:13;;;;;;;;;;;;;;;23.20;59.60;101891.00;4207359;28;19945;-59
2023/09/03 00:05:15;;;;;;;;;;;;;;;23.19;59.44;101898.16;4195093;28;20300;-58
2023/09/03 00:07:16;;;;;;;;;;;;;;;23.18;59.74;101896.44;4194448;28;20019;-59
2023/09/03 00:09:18;;;;;;;;;;;;;;;23.17;59.65;101897.41;4195169;28;19932;-59
2023/09/03 00:11:19;;;;;;;;;;;;;;;23.17;59.69;101896.56;4195000;28;19932;-58
2023/09/03 00:13:21;;;;;;;;;;;;;;;23.17;59.60;101889.34;4194953;28;19924;-59
2023/09/03 00:15:25;;;;;;;;;;;;;;;23.14;59.68;101898.47;4195031;28;19973;-59
2023/09/03 00:17:27;;;;;;;;;;;;;;;23.13;59.55;101896.72;4193993;28;19928;-58
2023/09/03 00:19:28;;;;;;;;;;;;;;;23.15;59.70;101904.69;4195075;28;19925;-59
2023/09/03 00:21:30;;;;;;;;;;;;;;;23.13;59.45;101891.38;4195094;28;19935;-58
2023/09/03 00:23:31;;;;;;;;;;;;;;;23.11;59.57;101896.00;4195185;28;20015;-59
2023/09/03 00:25:36;;;;;;;;;;;;;;;23.12;59.39;101897.72;4176664;28;19925;-59
2023/09/03 00:27:38;;;;;;;;;;;;;;;23.13;59.77;101899.41;4194778;28;19995;-58
2023/09/03 00:29:40;;;;;;;;;;;;;;;23.11;59.62;101909.44;4194953;28;19984;-59
2023/09/03 00:31:42;;;;;;;;;;;;;;;23.09;59.48;101905.97;4194464;28;19928;-59
2023/09/03 00:33:43;;;;;;;;;;;;;;;23.10;59.66;101907.69;4194653;28;19931;-59
2023/09/03 00:35:46;;;;;;;;;;;;;;;23.09;59.51;101914.03;4194126;28;19967;-58
2023/09/03 00:37:48;;;;;;;;;;;;;;;23.09;59.65;101914.03;4194824;28;20027;-59
2023/09/03 00:39:50;;;;;;;;;;;;;;;23.08;59.45;101906.94;4194669;28;19934;-59
2023/09/03 00:41:51;;;;;;;;;;;;;;;23.08;59.74;101912.31;4194738;28;20024;-58
2023/09/03 00:43:52;;;;;;;;;;;;;;;23.09;59.75;101914.03;4197999;28;20015;-59
2023/09/03 00:45:54;;;;;;;;;;;;;;;23.08;59.67;101917.66;4210316;28;19970;-59
2023/09/03 00:47:56;;;;;;;;;;;;;;;23.07;59.56;101920.47;4211557;28;19931;-59
2023/09/03 00:49:58;;;;;;;;;;;;;;;23.06;59.81;101916.94;4211613;28;19985;-58
2023/09/03 00:51:59;;;;;;;;;;;;;;;23.06;59.81;101921.44;4210139;28;20028;-58
2023/09/03 00:54:06;;;;;;;;;;;;;;;23.05;59.77;101920.59;4211342;28;20015;-59
2023/09/03 00:56:08;;;;;;;;;;;;;;;23.05;59.45;101928.63;4210431;28;19924;-58
2023/09/03 00:58:11;;;;;;;;;;;;;;;23.05;59.45;101922.41;4211222;28;19935;-59
2023/09/03 01:00:13;;;;;;;;;;;;;;;23.05;59.36;101925.94;4210972;28;19931;-59
2023/09/03 01:02:16;;;;;;;;;;;;;;;23.05;59.58;101928.63;4211384;28;20385;-59
2023/09/03 01:04:18;;;;;;;;;;;;;;;23.04;59.57;101920.66;4197717;28;19925;-58
2023/09/03 01:06:20;;;;;;;;;;;;;;;23.05;59.68;101923.28;4193461;28;19932;-58
2023/09/03 01:08:22;;;;;;;;;;;;;;;23.05;59.43;101927.75;4194486;28;20015;-58
2023/09/03 01:10:37;;;;;;;;;;;;;;;23.03;59.40;101927.88;4194400;28;19931;-58
2023/09/03 01:12:46;;;;;;;;;;;;;;;23.04;59.39;101926.03;4194422;28;19924;-59
2023/09/03 01:14:49;;;;;;;;;;;;;;;23.02;59.43;101912.75;4194238;28;19929;-59
2023/09/03 01:16:54;;;;;;;;;;;;;;;23.02;59.39;101915.41;4193084;27;20007;-58
2023/09/03 01:18:59;;;;;;;;;;;;;;;23.01;59.46;101913.69;4194363;28;19924;-59
2023/09/03 01:21:13;;;;;;;;;;;;;;;23.01;59.60;101911.03;4194176;28;20465;-58
2023/09/03 01:23:41;;;;;;;;;;;;;;;23.00;59.63;101905.75;4194481;28;20007;-59
2023/09/03 01:25:42;;;;;;;;;;;;;;;22.90;59.61;101884.09;4195260;28;19924;-59
2023/09/03 01:27:50;;;;;;;;;;;;;;;22.98;59.60;101898.69;4193746;28;20003;-59
2023/09/03 01:29:52;;;;;;;;;;;;;;;22.98;59.46;101890.63;4193946;28;19924;-59
2023/09/03 01:31:54;;;;;;;;;;;;;;;22.98;59.50;101885.25;4194149;28;19997;-59
2023/09/03 01:34:02;;;;;;;;;;;;;;;22.97;59.44;101891.59;4194171;28;19925;-60
2023/09/03 01:36:06;;;;;;;;;;;;;;;22.98;59.29;101887.94;4193394;28;19925;-58
2023/09/03 01:38:08;;;;;;;;;;;;;;;22.97;59.34;101880.00;4194227;28;20302;-59
2023/09/03 01:40:10;;;;;;;;;;;;;;;22.97;59.50;101885.38;4193966;28;19925;-58
2023/09/03 01:42:11;;;;;;;;;;;;;;;22.97;59.37;101888.06;4194002;28;19966;-59
2023/09/03 01:44:13;;;;;;;;;;;;;;;22.97;59.54;101883.53;4200154;28;19955;-57
2023/09/03 01:46:18;;;;;;;;;;;;;;;22.97;59.38;101885.38;4210088;28;20007;-57
2023/09/03 01:48:28;;;;;;;;;;;;;;;22.95;59.69;101876.56;4210625;28;19928;-57
2023/09/03 01:50:34;;;;;;;;;;;;;;;22.95;59.68;101877.44;4210857;28;19951;-58
2023/09/03 01:52:56;;;;;;;;;;;;;;;22.94;59.54;101878.41;4210768;28;20018;-59
2023/09/03 01:54:57;;;;;;;;;;;;;;;22.94;59.26;101877.53;4210836;28;19974;-58
2023/09/03 01:57:10;;;;;;;;;;;;;;;22.93;59.27;101882.06;4209667;28;19931;-59
2023/09/03 01:59:18;;;;;;;;;;;;;;;22.93;59.71;101875.81;4210480;28;20014;-58
2023/09/03 02:01:21;;;;;;;;;;;;;;;22.93;59.53;101873.13;4210740;28;19925;-58
2023/09/03 02:03:26;;;;;;;;;;;;;;;22.91;59.41;101875.09;4205873;28;19931;-58
2023/09/03 02:05:28;;;;;;;;;;;;;;;22.91;59.68;101872.41;4196594;28;19939;-58
2023/09/03 02:07:30;;;;;;;;;;;;;;;22.90;59.49;101879.56;4195693;28;19925;-58
2023/09/03 02:09:32;;;;;;;;;;;;;;;22.90;59.65;101876.03;4196765;28;19946;-58
2023/09/03 02:11:33;;;;;;;;;;;;;;;22.88;59.57;101889.56;4196597;28;19969;-58
2023/09/03 02:13:35;;;;;;;;;;;;;;;22.88;59.52;101889.56;4196267;28;20007;-58
2023/09/03 02:15:36;;;;;;;;;;;;;;;22.88;59.49;101888.69;4196674;28;19977;-58
2023/09/03 02:17:38;;;;;;;;;;;;;;;22.87;59.61;101889.66;4195569;28;20007;-58
2023/09/03 02:19:39;;;;;;;;;;;;;;;22.85;59.70;101889.75;4196691;28;19925;-58
2023/09/03 02:21:41;;;;;;;;;;;;;;;22.85;59.59;101896.97;4196407;28;20357;-58
2023/09/03 02:23:42;;;;;;;;;;;;;;;22.84;59.57;101895.25;4196354;28;19974;-58
2023/09/03 02:25:44;;;;;;;;;;;;;;;22.85;59.84;101902.34;4196436;28;19955;-58
2023/09/03 02:27:45;;;;;;;;;;;;;;;22.84;59.54;101901.44;4195231;28;20019;-58
2023/09/03 02:29:47;;;;;;;;;;;;;;;22.84;59.59;101892.56;4196683;28;20012;-58
2023/09/03 02:31:48;;;;;;;;;;;;;;;22.82;59.53;101892.69;4196146;28;19971;-58
2023/09/03 02:33:50;;;;;;;;;;;;;;;22.82;59.73;101892.69;4196563;28;19948;-57
2023/09/03 02:35:51;;;;;;;;;;;;;;;22.81;59.58;101890.97;4196075;28;20120;-58
2023/09/03 02:37:53;;;;;;;;;;;;;;;22.80;59.76;101891.91;4195802;28;19925;-58
2023/09/03 02:39:55;;;;;;;;;;;;;;;22.79;59.73;101892.88;4196213;28;19963;-59
2023/09/03 02:41:57;;;;;;;;;;;;;;;22.78;59.81;101888.47;4195988;28;19925;-58
2023/09/03 02:44:00;;;;;;;;;;;;;;;22.76;59.88;101895.75;4200665;28;20312;-58
2023/09/03 02:46:02;;;;;;;;;;;;;;;22.75;59.98;101900.28;4212700;28;19935;-58
2023/09/03 02:48:04;;;;;;;;;;;;;;;22.75;59.83;101902.94;4212765;28;20011;-58
2023/09/03 02:50:06;;;;;;;;;;;;;;;22.75;59.73;101908.31;4195101;28;20024;-58
2023/09/03 02:52:07;;;;;;;;;;;;;;;22.74;59.91;101911.97;4213021;28;19964;-58
2023/09/03 02:54:09;;;;;;;;;;;;;;;22.74;59.90;101913.78;4212961;28;19924;-58
2023/09/03 02:56:10;;;;;;;;;;;;;;;22.73;59.86;101914.75;4212008;28;19968;-58
2023/09/03 02:58:12;;;;;;;;;;;;;;;22.73;59.77;101920.13;4212661;28;19996;-58
2023/09/03 03:00:14;;;;;;;;;;;;;;;22.72;59.85;101927.28;4194979;28;19961;-59
2023/09/03 03:02:15;;;;;;;;;;;;;;;22.63;59.96;101912.69;4212821;28;20560;-58
2023/09/03 03:04:17;;;;;;;;;;;;;;;22.72;59.97;101915.72;4199257;28;19925;-58
2023/09/03 03:06:18;;;;;;;;;;;;;;;22.71;59.96;101930.09;4195208;28;19931;-57
2023/09/03 03:08:20;;;;;;;;;;;;;;;22.72;59.88;101932.66;4195758;28;19924;-58
2023/09/03 03:10:22;;;;;;;;;;;;;;;22.72;59.71;101929.13;4196196;28;19933;-58
2023/09/03 03:12:24;;;;;;;;;;;;;;;22.71;59.68;101928.28;4195334;28;19924;-58
2023/09/03 03:14:25;;;;;;;;;;;;;;;22.71;59.89;101927.41;4194765;28;20301;-58
2023/09/03 03:16:26;;;;;;;;;;;;;;;22.70;60.13;101937.28;4194761;28;19936;-59
2023/09/03 03:18:28;;;;;;;;;;;;;;;22.69;59.96;101930.19;4195474;27;19924;-58
2023/09/03 03:20:30;;;;;;;;;;;;;;;22.69;59.97;101932.03;4211372;28;19924;-58
2023/09/03 03:22:31;;;;;;;;;;;;;;;22.69;59.97;101937.38;4178116;28;19924;-58
2023/09/03 03:24:33;;;;;;;;;;;;;;;22.67;59.85;101926.75;4195921;28;20004;-59
2023/09/03 03:26:35;;;;;;;;;;;;;;;22.68;59.83;101914.22;4194392;28;19968;-58
2023/09/03 03:28:36;;;;;;;;;;;;;;;22.65;59.96;101918.81;4195490;28;19969;-58
2023/09/03 03:30:38;;;;;;;;;;;;;;;22.65;59.83;101926.00;4195738;28;19960;-58
2023/09/03 03:32:39;;;;;;;;;;;;;;;22.65;59.83;101928.69;4195592;27;19932;-58
2023/09/03 03:34:41;;;;;;;;;;;;;;;22.64;59.87;101930.50;4195604;28;19973;-57
2023/09/03 03:36:43;;;;;;;;;;;;;;;22.64;60.21;101929.66;4194830;28;19928;-58
2023/09/03 03:38:44;;;;;;;;;;;;;;;22.64;60.10;101927.81;4195558;28;20019;-58
2023/09/03 03:40:46;;;;;;;;;;;;;;;22.65;60.10;101934.06;4195420;28;19924;-58
2023/09/03 03:42:47;;;;;;;;;;;;;;;22.62;60.20;101929.72;4195557;28;20004;-58
2023/09/03 03:44:49;;;;;;;;;;;;;;;22.63;59.90;101938.66;4206696;28;19967;-58
2023/09/03 03:46:50;;;;;;;;;;;;;;;22.62;60.07;101950.34;4211283;28;19924;-59
2023/09/03 03:48:52;;;;;;;;;;;;;;;22.62;59.93;101945.81;4194336;28;19931;-58
2023/09/03 03:50:54;;;;;;;;;;;;;;;22.60;60.00;101947.78;4212208;28;19924;-58
2023/09/03 03:52:56;;;;;;;;;;;;;;;22.61;59.96;101945.94;4211774;28;19924;-58
2023/09/03 03:54:57;;;;;;;;;;;;;;;22.61;59.96;101952.19;4211816;28;19930;-58
2023/09/03 03:56:59;;;;;;;;;;;;;;;22.59;60.13;101956.78;4211096;28;19928;-58
2023/09/03 03:59:00;;;;;;;;;;;;;;;22.59;60.06;101966.63;4212074;28;19992;-58
2023/09/03 04:01:14;;;;;;;;;;;;;;;22.58;59.97;101965.78;4211836;28;20375;-59
2023/09/03 04:03:15;;;;;;;;;;;;;;;22.58;60.04;101956.88;4207199;27;20015;-58
2023/09/03 04:05:17;;;;;;;;;;;;;;;22.57;59.90;101953.31;4195094;28;19929;-58
2023/09/03 04:07:18;;;;;;;;;;;;;;;22.56;59.88;101954.28;4194192;28;19928;-58
2023/09/03 04:09:20;;;;;;;;;;;;;;;22.55;60.18;101963.28;4194808;28;19977;-59
2023/09/03 04:11:23;;;;;;;;;;;;;;;22.55;59.99;101971.31;4195204;28;19925;-59
2023/09/03 04:13:28;;;;;;;;;;;;;;;22.54;60.00;101972.31;4194875;28;20019;-58
2023/09/03 04:15:29;;;;;;;;;;;;;;;22.56;60.06;101974.88;4194940;28;19931;-58
2023/09/03 04:17:31;;;;;;;;;;;;;;;22.54;60.04;101974.13;4193991;28;19931;-58
2023/09/03 04:19:33;;;;;;;;;;;;;;;22.53;60.04;101973.28;4194830;28;19929;-58
2023/09/03 04:21:35;;;;;;;;;;;;;;;22.53;59.99;101978.63;4195275;28;20448;-59
2023/09/03 04:23:36;;;;;;;;;;;;;;;22.53;59.88;101975.94;4194514;28;19924;-58
2023/09/03 04:25:38;;;;;;;;;;;;;;;22.53;60.27;101970.59;4194647;28;19932;-58
2023/09/03 04:27:40;;;;;;;;;;;;;;;22.53;59.98;101980.44;4194149;28;19925;-59
2023/09/03 04:29:41;;;;;;;;;;;;;;;22.52;60.06;101978.72;4194910;28;20373;-58
2023/09/03 04:31:43;;;;;;;;;;;;;;;22.52;60.13;101982.28;4194873;28;19929;-58
2023/09/03 04:33:45;;;;;;;;;;;;;;;22.51;60.10;101977.03;4194887;28;19967;-60
2023/09/03 04:35:46;;;;;;;;;;;;;;;22.52;60.03;101986.75;4194775;28;19924;-58
2023/09/03 04:37:50;;;;;;;;;;;;;;;22.51;60.01;101979.69;4193439;28;19931;-58
2023/09/03 04:39:51;;;;;;;;;;;;;;;22.49;60.30;101986.03;4194669;28;20393;-58
2023/09/03 04:41:53;;;;;;;;;;;;;;;22.51;60.06;101987.75;4194631;28;20020;-59
2023/09/03 04:44:12;;;;;;;;;;;;;;;22.49;60.04;101990.50;4198227;28;19935;-58
2023/09/03 04:46:14;;;;;;;;;;;;;;;22.48;60.15;101997.69;4211497;28;19924;-58
2023/09/03 04:48:16;;;;;;;;;;;;;;;22.48;60.36;101989.66;4210629;28;19928;-57
2023/09/03 04:50:18;;;;;;;;;;;;;;;22.47;60.29;101990.63;4211430;28;19931;-57
2023/09/03 04:52:19;;;;;;;;;;;;;;;22.47;60.23;101995.13;4211032;28;19928;-58
2023/09/03 04:54:21;;;;;;;;;;;;;;;22.46;60.20;101993.41;4211278;28;19931;-58
2023/09/03 04:56:23;;;;;;;;;;;;;;;22.42;59.90;101995.44;4211007;28;19979;-59
2023/09/03 04:58:25;;;;;;;;;;;;;;;22.46;60.07;101993.41;4210731;28;19924;-58
2023/09/03 05:00:30;;;;;;;;;;;;;;;22.46;60.10;101998.75;4193168;28;19925;-58
2023/09/03 05:02:31;;;;;;;;;;;;;;;22.46;60.19;101996.09;4211307;28;20364;-58
2023/09/03 05:04:33;;;;;;;;;;;;;;;22.45;60.04;102005.94;4195547;28;20397;-59
2023/09/03 05:06:35;;;;;;;;;;;;;;;22.45;60.39;102007.75;4193305;28;20457;-59
2023/09/03 05:08:37;;;;;;;;;;;;;;;22.44;60.30;102009.59;4194124;28;19924;-59
2023/09/03 05:10:39;;;;;;;;;;;;;;;22.45;60.33;102013.13;4194471;28;19932;-59
2023/09/03 05:12:41;;;;;;;;;;;;;;;22.43;60.12;102004.31;4176666;28;19956;-57
2023/09/03 05:14:42;;;;;;;;;;;;;;;22.44;59.99;102008.72;4194288;28;19925;-58
2023/09/03 05:16:44;;;;;;;;;;;;;;;22.41;60.29;102006.25;4193586;28;20370;-58
2023/09/03 05:18:45;;;;;;;;;;;;;;;22.41;60.28;102012.47;4194096;28;20489;-57
2023/09/03 05:20:47;;;;;;;;;;;;;;;22.42;60.13;102013.31;4194113;28;19925;-58
2023/09/03 05:22:48;;;;;;;;;;;;;;;22.42;60.21;102007.94;4193917;28;19931;-58
2023/09/03 05:24:50;;;;;;;;;;;;;;;22.41;60.35;102011.63;4194178;28;19959;-58
2023/09/03 05:26:51;;;;;;;;;;;;;;;22.41;60.16;102009.78;4193461;27;19928;-58
2023/09/03 05:28:53;;;;;;;;;;;;;;;22.40;59.99;102009.91;4194284;28;19947;-58
2023/09/03 05:30:54;;;;;;;;;;;;;;;22.41;60.36;102011.63;4194148;28;19928;-58
2023/09/03 05:32:56;;;;;;;;;;;;;;;22.41;60.13;102008.94;4194068;28;20009;-58
2023/09/03 05:34:57;;;;;;;;;;;;;;;22.40;60.50;102012.56;4194171;28;19931;-58
2023/09/03 05:36:59;;;;;;;;;;;;;;;22.40;60.20;102015.25;4175245;28;20441;-58
2023/09/03 05:39:00;;;;;;;;;;;;;;;22.39;60.12;102022.41;4196596;28;19994;-58
2023/09/03 05:41:03;;;;;;;;;;;;;;;22.38;60.12;102036.78;4197300;28;19925;-58
2023/09/03 05:43:04;;;;;;;;;;;;;;;22.38;60.21;102034.09;4197003;28;19969;-58
2023/09/03 05:45:06;;;;;;;;;;;;;;;22.38;60.23;102039.44;4210624;28;20363;-58
2023/09/03 05:47:07;;;;;;;;;;;;;;;22.39;60.43;102046.53;4213094;28;19982;-59
2023/09/03 05:49:09;;;;;;;;;;;;;;;22.38;60.35;102043.94;4213721;28;19930;-58
2023/09/03 05:51:10;;;;;;;;;;;;;;;22.37;60.22;102051.13;4213599;28;19952;-58
2023/09/03 05:53:12;;;;;;;;;;;;;;;22.37;60.10;102051.13;4213467;28;20385;-58
2023/09/03 05:55:13;;;;;;;;;;;;;;;22.36;60.12;102052.09;4213750;28;20007;-58
2023/09/03 05:57:15;;;;;;;;;;;;;;;22.36;60.30;102046.72;4212717;28;19955;-58
2023/09/03 05:59:16;;;;;;;;;;;;;;;22.35;60.34;102050.34;4213583;28;19932;-58
2023/09/03 06:01:18;;;;;;;;;;;;;;;22.37;60.20;102044.88;4213363;28;19931;-58
2023/09/03 06:03:19;;;;;;;;;;;;;;;22.36;60.32;102044.03;4208317;28;20034;-59
2023/09/03 06:05:25;;;;;;;;;;;;;;;22.34;60.46;102052.16;4196686;27;19925;-58
2023/09/03 06:07:26;;;;;;;;;;;;;;;22.34;60.19;102049.47;4195714;28;20418;-58
2023/09/03 06:09:28;;;;;;;;;;;;;;;22.34;60.18;102045.94;4196739;28;20327;-59
2023/09/03 06:11:29;;;;;;;;;;;;;;;22.33;60.27;102053.16;4196434;28;20015;-58
2023/09/03 06:13:32;;;;;;;;;;;;;;;22.33;60.16;102041.53;4178749;28;20027;-59
2023/09/03 06:15:34;;;;;;;;;;;;;;;22.34;60.32;102054.00;4196746;28;19928;-58
2023/09/03 06:17:35;;;;;;;;;;;;;;;22.33;60.16;102052.28;4195454;28;19935;-58
2023/09/03 06:19:37;;;;;;;;;;;;;;;22.32;60.53;102056.78;4196316;28;20335;-59
2023/09/03 06:21:38;;;;;;;;;;;;;;;22.31;60.18;102071.13;4196608;28;20027;-58
2023/09/03 06:23:40;;;;;;;;;;;;;;;22.32;60.40;102080.03;4196459;28;19977;-58
2023/09/03 06:25:42;;;;;;;;;;;;;;;22.30;60.28;102077.44;4196462;28;19932;-58
2023/09/03 06:27:43;;;;;;;;;;;;;;;22.31;60.49;102087.22;4195428;28;19924;-58
2023/09/03 06:29:45;;;;;;;;;;;;;;;22.31;60.23;102089.91;4196603;28;20024;-58
2023/09/03 06:31:46;;;;;;;;;;;;;;;22.30;60.20;102080.13;4196440;28;19925;-58
2023/09/03 06:33:48;;;;;;;;;;;;;;;22.31;60.37;102092.56;4195955;28;19969;-58
2023/09/03 06:35:49;;;;;;;;;;;;;;;22.31;60.17;102097.94;4196231;28;20026;-58
2023/09/03 06:37:51;;;;;;;;;;;;;;;22.32;60.41;102104.16;4195372;28;19924;-58
2023/09/03 06:39:52;;;;;;;;;;;;;;;22.29;60.36;102105.22;4196284;28;20405;-58
2023/09/03 06:41:54;;;;;;;;;;;;;;;22.30;60.31;102104.25;4196094;28;19925;-59
2023/09/03 06:43:55;;;;;;;;;;;;;;;22.30;60.37;102106.94;4200059;28;20027;-58
2023/09/03 06:45:57;;;;;;;;;;;;;;;22.30;60.43;102103.41;4194862;28;19947;-59
2023/09/03 06:47:58;;;;;;;;;;;;;;;22.29;60.39;102102.53;4212224;28;19968;-59
2023/09/03 06:50:00;;;;;;;;;;;;;;;22.30;60.24;102098.03;4213043;28;19955;-59
2023/09/03 06:52:01;;;;;;;;;;;;;;;22.29;60.36;102102.53;4212875;28;20014;-59
2023/09/03 06:54:03;;;;;;;;;;;;;;;22.28;60.52;102098.13;4212882;28;20019;-58
2023/09/03 06:56:07;;;;;;;;;;;;;;;22.28;60.32;102097.28;4212766;28;20020;-58
2023/09/03 06:58:09;;;;;;;;;;;;;;;22.27;60.39;102098.22;4211816;28;20441;-58
2023/09/03 07:00:11;;;;;;;;;;;;;;;22.27;60.29;102103.59;4195113;28;19925;-57
2023/09/03 07:02:12;;;;;;;;;;;;;;;22.27;60.40;102101.78;4212994;28;19968;-58
2023/09/03 07:04:14;;;;;;;;;;;;;;;22.27;60.38;102112.50;4199389;28;19924;-58
2023/09/03 07:06:16;;;;;;;;;;;;;;;22.20;60.55;102105.81;4196097;28;19928;-58
2023/09/03 07:08:18;;;;;;;;;;;;;;;22.27;60.36;102115.19;4195062;27;19925;-58
2023/09/03 07:10:19;;;;;;;;;;;;;;;22.26;60.33;102105.41;4195883;28;20004;-59
2023/09/03 07:12:21;;;;;;;;;;;;;;;22.26;60.39;102110.78;4196241;28;20056;-58
2023/09/03 07:14:23;;;;;;;;;;;;;;;22.27;60.27;102119.66;4195821;28;20431;-58
2023/09/03 07:16:24;;;;;;;;;;;;;;;22.26;60.44;102120.63;4195970;28;19924;-58
2023/09/03 07:18:26;;;;;;;;;;;;;;;22.26;60.64;102115.25;4194477;28;19947;-58
2023/09/03 07:20:27;;;;;;;;;;;;;;;22.26;60.32;102116.13;4195960;28;19925;-58
2023/09/03 07:22:29;;;;;;;;;;;;;;;22.26;60.28;102121.50;4195801;28;20015;-58
2023/09/03 07:24:31;;;;;;;;;;;;;;;22.27;60.64;102125.91;4195824;28;19980;-57
2023/09/03 07:26:32;;;;;;;;;;;;;;;22.27;60.47;102123.22;4195635;28;19932;-58
2023/09/03 07:28:34;;;;;;;;;;;;;;;22.29;60.29;102131.16;4194952;28;20302;-58
2023/09/03 07:30:35;;;;;;;;;;;;;;;22.28;60.45;102127.59;4195805;28;20461;-58
2023/09/03 07:32:37;;;;;;;;;;;;;;;22.29;60.68;102132.00;4195305;28;20385;-59
2023/09/03 07:34:43;;;;;;;;;;;;;;;22.29;60.28;102132.00;4210989;28;20020;-58
2023/09/03 07:36:45;;;;;;;;;;;;;;;22.31;60.33;102126.56;4195679;28;20385;-57
2023/09/03 07:38:46;;;;;;;;;;;;;;;22.32;60.27;102113.06;4194801;28;20324;-58
2023/09/03 07:40:48;;;;;;;;;;;;;;;22.34;60.26;102119.16;4195510;28;19925;-58
2023/09/03 07:42:50;;;;;;;;;;;;;;;22.34;60.45;102107.59;4195589;28;19924;-58
2023/09/03 07:44:52;;;;;;;;;;;;;;;22.36;60.44;102105.69;4206843;28;19924;-58
2023/09/03 07:46:54;;;;;;;;;;;;;;;22.37;60.27;102102.06;4211977;28;20471;-59
2023/09/03 07:48:56;;;;;;;;;;;;;;;22.38;60.17;102097.53;4211448;28;20285;-59
2023/09/03 07:50:57;;;;;;;;;;;;;;;22.39;60.44;102096.63;4212272;28;19924;-59
2023/09/03 07:52:59;;;;;;;;;;;;;;;22.40;60.41;102090.31;4212026;28;19931;-59
2023/09/03 07:55:00;;;;;;;;;;;;;;;22.42;60.44;102083.00;4212383;28;19924;-58
2023/09/03 07:57:02;;;;;;;;;;;;;;;22.45;60.04;102093.53;4211529;28;19924;-58
2023/09/03 07:59:03;;;;;;;;;;;;;;;22.46;60.00;102089.91;4211634;28;19924;-58
2023/09/03 08:01:05;;;;;;;;;;;;;;;22.47;60.31;102095.16;4210842;28;19932;-58
2023/09/03 08:03:06;;;;;;;;;;;;;;;22.48;59.93;102086.16;4208490;28;19931;-59
2023/09/03 08:05:11;;;;;;;;;;;;;;;22.50;59.98;102083.38;4195337;28;19932;-58
2023/09/03 08:07:13;;;;;;;;;;;;;;;22.53;59.93;102085.00;4194679;27;20016;-57
2023/09/03 08:09:15;;;;;;;;;;;;;;;22.53;59.89;102091.25;4194916;28;20312;-58
2023/09/03 08:11:16;;;;;;;;;;;;;;;22.55;59.96;102091.13;4177346;28;20018;-58
2023/09/03 08:13:18;;;;;;;;;;;;;;;22.56;59.71;102088.34;4195020;28;19929;-58
2023/09/03 08:15:20;;;;;;;;;;;;;;;22.58;59.79;102090.94;4194941;28;19973;-58
2023/09/03 08:17:38;;;;;;;;;;;;;;;22.58;59.46;102089.13;4177786;28;20032;-58
2023/09/03 08:19:39;;;;;;;;;;;;;;;22.59;59.50;102088.16;4178414;28;19925;-58
2023/09/03 08:21:41;;;;;;;;;;;;;;;22.60;59.70;102086.31;4178447;28;20432;-58
2023/09/03 08:23:43;;;;;;;;;;;;;;;22.62;59.43;102090.63;4178412;28;20035;-58
2023/09/03 08:25:45;;;;;;;;;;;;;;;22.64;59.32;102086.03;4178465;28;19968;-58
2023/09/03 08:27:48;;;;;;;;;;;;;;;22.65;59.37;102089.59;4159669;28;19959;-58
2023/09/03 08:29:49;;;;;;;;;;;;;;;22.67;59.20;102086.78;4178104;28;19935;-58
2023/09/03 08:31:51;;;;;;;;;;;;;;;22.69;59.44;102095.63;4177961;28;19924;-58
2023/09/03 08:33:53;;;;;;;;;;;;;;;22.70;59.40;102079.41;4178081;28;19925;-58
2023/09/03 08:35:56;;;;;;;;;;;;;;;22.71;59.15;102081.13;4178382;28;19947;-59
2023/09/03 08:37:57;;;;;;;;;;;;;;;22.63;59.49;102067.38;4177359;28;19928;-58
2023/09/03 08:39:59;;;;;;;;;;;;;;;22.74;59.35;102082.75;4178166;28;19960;-58
2023/09/03 08:42:00;;;;;;;;;;;;;;;22.75;59.26;102084.47;4178215;28;20298;-58
2023/09/03 08:44:04;;;;;;;;;;;;;;;22.77;58.92;102091.47;4187189;28;19928;-58
2023/09/03 08:46:09;;;;;;;;;;;;;;;22.78;59.08;102095.00;4211605;28;19975;-58
2023/09/03 08:48:11;;;;;;;;;;;;;;;22.79;59.25;102099.41;4210638;28;20521;-58
2023/09/03 08:50:14;;;;;;;;;;;;;;;22.80;59.25;102095.75;4211605;28;19960;-58
2023/09/03 08:52:16;;;;;;;;;;;;;;;22.82;58.93;102099.22;4211452;28;19928;-58
2023/09/03 08:54:17;;;;;;;;;;;;;;;22.84;59.03;102099.09;4211305;28;19928;-59
2023/09/03 08:56:19;;;;;;;;;;;;;;;22.85;59.37;102100.81;4211322;28;20432;-59
2023/09/03 08:58:21;;;;;;;;;;;;;;;22.86;58.96;102105.25;4210117;28;19924;-58
2023/09/03 09:00:22;;;;;;;;;;;;;;;22.88;58.90;102100.59;4210874;28;19930;-58
2023/09/03 09:02:25;;;;;;;;;;;;;;;22.88;59.16;102090.75;4211274;28;20320;-59
2023/09/03 09:04:29;;;;;;;;;;;;;;;22.91;59.04;102097.75;4196504;28;20420;-58
2023/09/03 09:06:31;;;;;;;;;;;;;;;22.90;58.88;102094.19;4194375;28;19977;-59
2023/09/03 09:08:33;;;;;;;;;;;;;;;22.91;58.76;102095.91;4193374;28;20370;-60
2023/09/03 09:10:37;;;;;;;;;;;;;;;22.93;58.71;102098.47;4194493;28;19974;-58
2023/09/03 09:12:48;;;;;;;;;;;;;;;22.94;58.72;102092.16;4194648;28;19925;-58
2023/09/03 09:14:55;;;;;;;;;;;;;;;22.95;58.83;102102.81;4197115;28;20339;-58
2023/09/03 09:16:56;;;;;;;;;;;;;;;22.97;58.58;102108.06;4197176;28;19924;-58
2023/09/03 09:18:58;;;;;;;;;;;;;;;22.97;58.58;102103.53;4196472;28;19946;-57
2023/09/03 09:21:00;;;;;;;;;;;;;;;23.00;58.84;102107.84;4197536;28;19924;-59
2023/09/03 09:23:02;;;;;;;;;;;;;;;23.03;58.81;102107.66;4197464;28;19925;-59
2023/09/03 09:25:04;;;;;;;;;;;;;;;23.05;58.85;102103.06;4197475;28;19924;-58
2023/09/03 09:27:26;;;;;;;;;;;;;;;23.05;58.66;102105.72;4197126;28;20023;-59
2023/09/03 09:29:27;;;;;;;;;;;;;;;23.06;58.60;102102.09;4196827;28;20015;-58
2023/09/03 09:31:33;;;;;;;;;;;;;;;23.07;58.28;102103.78;4197222;28;20381;-57
2023/09/03 09:33:49;;;;;;;;;;;;;;;23.09;58.46;102106.38;4196994;28;19928;-57
2023/09/03 09:35:51;;;;;;;;;;;;;;;23.13;58.53;102105.22;4197143;28;20007;-58
2023/09/03 09:37:52;;;;;;;;;;;;;;;23.15;58.42;102114.03;4196059;28;19925;-58
2023/09/03 09:39:54;;;;;;;;;;;;;;;23.14;58.27;102113.16;4197090;28;20028;-58
2023/09/03 09:42:06;;;;;;;;;;;;;;;23.16;58.54;102117.56;4196917;28;19959;-58
2023/09/03 09:44:09;;;;;;;;;;;;;;;23.15;58.20;102124.75;4202452;28;19924;-58
2023/09/03 09:46:23;;;;;;;;;;;;;;;23.18;58.16;102129.94;4213717;28;19924;-58
2023/09/03 09:48:25;;;;;;;;;;;;;;;23.18;58.77;102129.94;4212709;28;19928;-59
2023/09/03 09:50:36;;;;;;;;;;;;;;;23.23;58.28;102124.28;4213722;28;20024;-59
2023/09/03 09:52:38;;;;;;;;;;;;;;;23.26;58.36;102124.94;4213646;27;20023;-59
2023/09/03 09:54:40;;;;;;;;;;;;;;;23.28;58.08;102125.69;4213816;28;19925;-58
2023/09/03 09:56:43;;;;;;;;;;;;;;;23.29;58.18;102115.81;4213379;28;19976;-58
2023/09/03 09:58:44;;;;;;;;;;;;;;;23.31;58.24;102113.88;4212635;28;20368;-58
2023/09/03 10:00:52;;;;;;;;;;;;;;;23.34;58.04;102112.81;4213664;28;19925;-58
2023/09/03 10:02:57;;;;;;;;;;;;;;;23.37;57.97;102107.25;4212094;28;19924;-59
2023/09/03 10:04:59;;;;;;;;;;;;;;;23.34;57.82;102102.06;4196680;28;20395;-59
2023/09/03 10:07:01;;;;;;;;;;;;;;;23.35;58.12;102103.81;4179012;28;20338;-59
2023/09/03 10:09:03;;;;;;;;;;;;;;;23.34;57.97;102105.59;4195409;28;20011;-58
2023/09/03 10:11:04;;;;;;;;;;;;;;;23.38;58.54;102107.13;4196341;28;19955;-58
2023/09/03 10:13:07;;;;;;;;;;;;;;;23.44;57.88;102103.19;4196730;28;19992;-58
2023/09/03 10:15:12;;;;;;;;;;;;;;;23.44;57.70;102105.88;4196679;28;20015;-58
2023/09/03 10:17:14;;;;;;;;;;;;;;;23.45;58.02;102102.19;4196418;28;19955;-57
2023/09/03 10:19:17;;;;;;;;;;;;;;;23.44;57.93;102101.34;4195782;28;19924;-57
2023/09/03 10:21:25;;;;;;;;;;;;;;;23.51;57.83;102098.22;4196345;28;19960;-60
2023/09/03 10:23:48;;;;;;;;;;;;;;;23.50;57.61;102099.19;4196014;28;19925;-60
2023/09/03 10:25:50;;;;;;;;;;;;;;;23.51;57.66;102096.41;4196419;28;20007;-60
2023/09/03 10:28:07;;;;;;;;;;;;;;;23.49;57.72;102100.16;4195625;28;19924;-61
2023/09/03 10:30:11;;;;;;;;;;;;;;;23.48;57.66;102098.47;4196440;28;19928;-60